Icarus — YJWB6 — position and weather

sailwx.info

Track history (hours):
 
Tides and Currents Weather Stations Pressure Air Temp Water Temp Dewpoint Dewpoint Depression Visibility Wind Speed Wind Dir Waves Ship Positions

Icarus

Last reported at 2018-Jun-26 07:12 UTC. Time now 2018-Aug-19 22:52 UTC.
Position S 34°20' E 017°32'.
Warning: this ship's position is 54 days out of date.

Length 225 m; draft 9.3 m.

Type: Cargo ship. MMSI: 577346000.

Date/timePositionNaut miles runAvg speedWind from/ knotsBaromVisibWave heightAir tempDewpointWater temp
2018-Jun-26 07:12S 34°20' E 017°32'412.6
2018-Jun-26 06:53S 34°21' E 017°37'512.6
2018-Jun-26 06:30S 34°24' E 017°42'1012.4
2018-Jun-26 05:43S 34°28' E 017°52'312.2
2018-Jun-26 05:27S 34°30' E 017°56'811.9
2018-Jun-26 04:49S 34°34' E 018°04'412.1
2018-Jun-26 04:29S 34°35' E 018°08'812.3
2018-Jun-26 03:50S 34°39' E 018°17'412.7
2018-Jun-26 03:29S 34°41' E 018°22'712.7
2018-Jun-26 02:57S 34°43' E 018°30'612.7
2018-Jun-26 02:28S 34°44' E 018°37'612.2
2018-Jun-26 02:00S 34°45' E 018°44'612.2
2018-Jun-26 01:28S 34°47' E 018°51'  
Track history (hours):
 
Tides and Currents Weather Stations Pressure Air Temp Water Temp Dewpoint Dewpoint Depression Visibility Wind Speed Wind Dir Waves Ship Positions

Icarus

Last reported at 2018-Jun-26 07:12 UTC. Time now 2018-Aug-19 22:52 UTC.
Position S 34°20' E 017°32'.
Warning: this ship's position is 54 days out of date.

Length 225 m; draft 9.3 m.

Type: Cargo ship. MMSI: 577346000.

Date/timePositionNaut miles runAvg speedWind from/ knotsBaromVisibWave heightAir tempDewpointWater temp
2018-Jun-26 07:12S 34°20' E 017°32'412.6
2018-Jun-26 06:53S 34°21' E 017°37'512.6
2018-Jun-26 06:30S 34°24' E 017°42'1012.4
2018-Jun-26 05:43S 34°28' E 017°52'312.2
2018-Jun-26 05:27S 34°30' E 017°56'811.9
2018-Jun-26 04:49S 34°34' E 018°04'412.1
2018-Jun-26 04:29S 34°35' E 018°08'812.3
2018-Jun-26 03:50S 34°39' E 018°17'412.7
2018-Jun-26 03:29S 34°41' E 018°22'712.7
2018-Jun-26 02:57S 34°43' E 018°30'612.7
2018-Jun-26 02:28S 34°44' E 018°37'612.2
2018-Jun-26 02:00S 34°45' E 018°44'612.2
2018-Jun-26 01:28S 34°47' E 018°51'  

Dump ship's entire track history